Forside
METAR-TAF:

METAR-TAF

Lufthavne :

Taylorville Municipal Airport

Taylorville, Illinois, USA

Breddekreds: 39-32-03N, længdekreds: 089-19-40W, højde: 190 m

Aktuelle vejr

Denne rapport blev lavet for 19 minutter siden, kl. 23:35 UTC
Vind 9 kt fra sydsydvest
Temperatur 12°C
Fugtighed 71%
Tryk 1016 hPa
Sigt: 16.1 km
Overskyet i en højde af 2400 ft

METAR: KTAZ 192335Z AUTO 21009KT 10SM OVC024 12/07 A3000 RMK AO2 T01160070

Tid: 18:54 (23:54 UTC)


TAF: fraværende

Vejrobservationer og prognoser fra mere end 4000 lufthavne (METAR og TAF).

De gule og røde prikker repræsenterer de meteorologiske stationer.

Flyt musen over at se navnet på stationen.

Så klik over at se vejr observationer og prognoser.

At skifte det kort: Klik på de grønne knapper med et sort kors for at zoome ind; på den grønne knap med en bindestreg for at zoome ud; eller på de grønne pile for tilstødende kort.


METAR-TAF: